Kota Waris — S6RJ — position and weather

sailwx.info

Track history (hours):
 
Tides and Currents Weather Stations Pressure Air Temp Water Temp Dewpoint Dewpoint Depression Visibility Wind Speed Wind Dir Waves Ship Positions

Kota Waris

Last reported at 2015-Jan-27 17:22 UTC. Time now 2015-Jan-28 06:39 UTC.
Position N 16°10' E 108°20'.

Length 185 m; draft 8.9 m.

Type: Ship (hazmat cat A). MMSI: 564482000.

Date/timePositionNaut miles runAvg speedWind from/ knotsBaromVisibWave heightAir tempDewpointWater temp
2015-Jan-27 17:22N 16°10' E 108°20'810.0
2015-Jan-27 16:33N 16°07' E 108°12'1 0.6
2015-Jan-27 15:33N 16°07' E 108°13'0 0.0
2015-Jan-27 14:33N 16°07' E 108°13'0 0.0
2015-Jan-27 13:33N 16°07' E 108°13'0 0.0
2015-Jan-27 12:34N 16°07' E 108°13'0 0.0
2015-Jan-27 11:33N 16°07' E 108°13'0 0.0
2015-Jan-27 10:33N 16°07' E 108°13'0 0.0
2015-Jan-27 09:33N 16°07' E 108°13'0 0.0
2015-Jan-27 08:34N 16°07' E 108°13'2 1.9
2015-Jan-27 07:32N 16°09' E 108°12'1110.1
2015-Jan-27 06:30N 16°15' E 108°22'6 4.4
2015-Jan-27 05:12N 16°16' E 108°27'  
2015-Jan-24 11:33N 20°10' E 110°19'140 6.0
2015-Jan-23 12:17N 21°36' E 108°20'  
Track history (hours):
 
Tides and Currents Weather Stations Pressure Air Temp Water Temp Dewpoint Dewpoint Depression Visibility Wind Speed Wind Dir Waves Ship Positions

Kota Waris

Last reported at 2015-Jan-27 17:22 UTC. Time now 2015-Jan-28 06:39 UTC.
Position N 16°10' E 108°20'.

Length 185 m; draft 8.9 m.

Type: Ship (hazmat cat A). MMSI: 564482000.

Date/timePositionNaut miles runAvg speedWind from/ knotsBaromVisibWave heightAir tempDewpointWater temp
2015-Jan-27 17:22N 16°10' E 108°20'810.0
2015-Jan-27 16:33N 16°07' E 108°12'1 0.6
2015-Jan-27 15:33N 16°07' E 108°13'0 0.0
2015-Jan-27 14:33N 16°07' E 108°13'0 0.0
2015-Jan-27 13:33N 16°07' E 108°13'0 0.0
2015-Jan-27 12:34N 16°07' E 108°13'0 0.0
2015-Jan-27 11:33N 16°07' E 108°13'0 0.0
2015-Jan-27 10:33N 16°07' E 108°13'0 0.0
2015-Jan-27 09:33N 16°07' E 108°13'0 0.0
2015-Jan-27 08:34N 16°07' E 108°13'2 1.9
2015-Jan-27 07:32N 16°09' E 108°12'1110.1
2015-Jan-27 06:30N 16°15' E 108°22'6 4.4
2015-Jan-27 05:12N 16°16' E 108°27'  
2015-Jan-24 11:33N 20°10' E 110°19'140 6.0
2015-Jan-23 12:17N 21°36' E 108°20'  

Dump ship's entire track history